KMDW/MDW METAR and TAF weather

Enter ICAO airport designator
Station Type Date Time Source
KMDW METAR 2019/12/16 05:53 UTC NOAA

KMDW 160553Z 00000KT 3SM -SN BR FEW007 BKN031 OVC070 M04/M06 A3012 RMK AO2 SLP213 P0000 60000 T10391056 11028 21039 410281067 50000


Station Type Date Time Source
KMDW Decoded METAR 2019/12/16 05:53 UTC NOAA

CHICAGO MIDWAY AIRPORT, IL, United States (KMDW) 41-47N 087-45W 188M
Dec 16, 2019 - 12:53 AM EST / 2019.12.16 0553 UTC
Wind: Calm:0
Visibility: 3 mile(s):0
Sky conditions: overcast
Weather: light snow; mist
Precipitation last hour: A trace
Temperature: 25.0 F (-3.9 C)
Dew Point: 21.9 F (-5.6 C)
Relative Humidity: 87%
Pressure (altimeter): 30.12 in. Hg (1019 hPa)
Pressure tendency: 0.00 inches (0.0 hPa) higher than three hours ago
ob: KMDW 160553Z 00000KT 3SM -SN BR FEW007 BKN031 OVC070 M04/M06 A3012 RMK AO2 SLP213 P0000 60000 T10391056 11028 21039 410281067 50000
cycle: 6

Station Type Date Time Source
KMDW TAF 2019/12/16 06:33 UTC NOAA

TAF KMDW 160530Z 1606/1712 34003KT 3SM -SN SCT015 OVC025
TEMPO 1606/1610 1 1/2SM -SN OVC015
FM161000 35004KT P6SM BKN030 OVC080
FM161900 02006KT P6SM FEW030 BKN200
FM170300 34008KT P6SM BKN150

Example: see airport list